sensor_id;sensor_type;location;lat;lon;timestamp;pressure;altitude;pressure_sealevel;temperature;humidity
9249;BME280;4660;41.768;26.198;2023-03-13T00:01:24;101241.00;;;7.57;98.89
9249;BME280;4660;41.768;26.198;2023-03-13T00:03:51;101244.88;;;7.65;98.06
9249;BME280;4660;41.768;26.198;2023-03-13T00:06:17;101253.47;;;7.32;99.64
9249;BME280;4660;41.768;26.198;2023-03-13T00:08:43;101242.66;;;7.47;98.98
9249;BME280;4660;41.768;26.198;2023-03-13T00:11:13;101255.91;;;7.35;98.93
9249;BME280;4660;41.768;26.198;2023-03-13T00:13:40;101251.97;;;7.03;100.00
9249;BME280;4660;41.768;26.198;2023-03-13T00:16:08;101255.94;;;7.10;100.00
9249;BME280;4660;41.768;26.198;2023-03-13T00:18:34;101244.13;;;7.12;100.00
9249;BME280;4660;41.768;26.198;2023-03-13T00:21:05;101243.31;;;7.50;100.00
9249;BME280;4660;41.768;26.198;2023-03-13T00:23:32;101238.06;;;7.36;100.00
9249;BME280;4660;41.768;26.198;2023-03-13T00:25:59;101253.47;;;7.45;100.00
9249;BME280;4660;41.768;26.198;2023-03-13T00:28:30;101247.03;;;7.48;100.00
9249;BME280;4660;41.768;26.198;2023-03-13T00:33:36;101257.31;;;7.15;100.00
9249;BME280;4660;41.768;26.198;2023-03-13T00:36:04;101268.00;;;7.03;100.00
9249;BME280;4660;41.768;26.198;2023-03-13T00:38:31;101255.34;;;6.79;100.00
9249;BME280;4660;41.768;26.198;2023-03-13T00:41:18;101266.72;;;6.96;100.00
9249;BME280;4660;41.768;26.198;2023-03-13T00:43:45;101260.63;;;7.19;100.00
9249;BME280;4660;41.768;26.198;2023-03-13T00:46:12;101254.75;;;7.39;100.00
9249;BME280;4660;41.768;26.198;2023-03-13T00:48:38;101237.75;;;7.15;100.00
9249;BME280;4660;41.768;26.198;2023-03-13T00:51:04;101253.44;;;7.07;100.00
9249;BME280;4660;41.768;26.198;2023-03-13T00:53:30;101214.47;;;6.65;100.00
9249;BME280;4660;41.768;26.198;2023-03-13T00:58:22;101251.75;;;6.93;100.00
9249;BME280;4660;41.768;26.198;2023-03-13T01:00:49;101254.91;;;6.85;100.00
9249;BME280;4660;41.768;26.198;2023-03-13T01:03:15;101246.78;;;7.00;100.00
9249;BME280;4660;41.768;26.198;2023-03-13T01:05:40;101252.84;;;7.29;100.00
9249;BME280;4660;41.768;26.198;2023-03-13T01:08:06;101253.91;;;7.39;100.00
9249;BME280;4660;41.768;26.198;2023-03-13T01:10:32;101248.22;;;7.43;100.00
9249;BME280;4660;41.768;26.198;2023-03-13T01:12:58;101257.84;;;7.59;100.00
9249;BME280;4660;41.768;26.198;2023-03-13T01:15:23;101252.38;;;7.73;100.00
9249;BME280;4660;41.768;26.198;2023-03-13T01:17:49;101261.44;;;7.83;100.00
9249;BME280;4660;41.768;26.198;2023-03-13T01:20:14;101263.59;;;7.78;100.00
9249;BME280;4660;41.768;26.198;2023-03-13T01:22:40;101259.00;;;7.67;100.00
9249;BME280;4660;41.768;26.198;2023-03-13T01:25:06;101218.69;;;7.32;100.00
9249;BME280;4660;41.768;26.198;2023-03-13T01:27:32;101257.09;;;7.57;100.00
9249;BME280;4660;41.768;26.198;2023-03-13T01:29:57;101259.88;;;7.68;100.00
9249;BME280;4660;41.768;26.198;2023-03-13T01:32:23;101264.81;;;7.49;100.00
9249;BME280;4660;41.768;26.198;2023-03-13T01:34:48;101267.38;;;7.25;100.00
9249;BME280;4660;41.768;26.198;2023-03-13T01:37:13;101272.53;;;7.15;100.00
9249;BME280;4660;41.768;26.198;2023-03-13T01:39:39;101262.97;;;6.98;100.00
9249;BME280;4660;41.768;26.198;2023-03-13T01:42:05;101278.75;;;6.76;100.00
9249;BME280;4660;41.768;26.198;2023-03-13T01:44:49;101276.16;;;7.01;100.00
9249;BME280;4660;41.768;26.198;2023-03-13T01:47:15;101286.03;;;6.74;100.00
9249;BME280;4660;41.768;26.198;2023-03-13T01:49:41;101290.72;;;6.70;100.00
9249;BME280;4660;41.768;26.198;2023-03-13T01:52:21;101295.41;;;6.67;100.00
9249;BME280;4660;41.768;26.198;2023-03-13T01:55:00;101302.00;;;6.34;100.00
9249;BME280;4660;41.768;26.198;2023-03-13T01:57:30;101293.50;;;6.42;100.00
9249;BME280;4660;41.768;26.198;2023-03-13T02:02:28;101315.78;;;6.55;100.00
9249;BME280;4660;41.768;26.198;2023-03-13T02:04:57;101313.22;;;6.53;100.00
9249;BME280;4660;41.768;26.198;2023-03-13T02:07:39;101296.56;;;6.35;100.00
9249;BME280;4660;41.768;26.198;2023-03-13T02:10:08;101312.06;;;6.30;100.00
9249;BME280;4660;41.768;26.198;2023-03-13T02:12:36;101306.03;;;6.27;100.00
9249;BME280;4660;41.768;26.198;2023-03-13T02:15:09;101312.97;;;6.44;100.00
9249;BME280;4660;41.768;26.198;2023-03-13T02:17:37;101322.38;;;6.49;100.00
9249;BME280;4660;41.768;26.198;2023-03-13T02:20:03;101323.25;;;6.50;100.00
9249;BME280;4660;41.768;26.198;2023-03-13T02:27:50;101346.47;;;6.76;100.00
9249;BME280;4660;41.768;26.198;2023-03-13T02:30:17;101344.34;;;6.81;100.00
9249;BME280;4660;41.768;26.198;2023-03-13T02:32:44;101340.50;;;6.85;100.00
9249;BME280;4660;41.768;26.198;2023-03-13T02:35:13;101340.22;;;6.36;100.00
9249;BME280;4660;41.768;26.198;2023-03-13T02:37:44;101354.31;;;6.38;100.00
9249;BME280;4660;41.768;26.198;2023-03-13T02:40:15;101351.75;;;6.37;100.00
9249;BME280;4660;41.768;26.198;2023-03-13T02:42:44;101344.69;;;6.21;100.00
9249;BME280;4660;41.768;26.198;2023-03-13T02:45:13;101365.69;;;6.27;100.00
9249;BME280;4660;41.768;26.198;2023-03-13T02:47:39;101356.69;;;6.28;100.00
9249;BME280;4660;41.768;26.198;2023-03-13T02:50:04;101365.28;;;6.33;100.00
9249;BME280;4660;41.768;26.198;2023-03-13T02:52:34;101351.94;;;6.33;100.00
9249;BME280;4660;41.768;26.198;2023-03-13T02:55:11;101356.16;;;6.23;100.00
9249;BME280;4660;41.768;26.198;2023-03-13T02:57:38;101373.63;;;6.29;100.00
9249;BME280;4660;41.768;26.198;2023-03-13T03:00:06;101368.72;;;6.35;100.00
9249;BME280;4660;41.768;26.198;2023-03-13T03:02:36;101367.97;;;6.19;100.00
9249;BME280;4660;41.768;26.198;2023-03-13T03:05:02;101367.91;;;6.06;100.00
9249;BME280;4660;41.768;26.198;2023-03-13T03:07:28;101375.91;;;6.21;100.00
9249;BME280;4660;41.768;26.198;2023-03-13T03:09:54;101381.66;;;6.00;100.00
9249;BME280;4660;41.768;26.198;2023-03-13T03:12:19;101380.28;;;5.79;100.00
9249;BME280;4660;41.768;26.198;2023-03-13T03:14:45;101385.94;;;6.03;100.00
9249;BME280;4660;41.768;26.198;2023-03-13T03:17:11;101375.41;;;6.14;100.00
9249;BME280;4660;41.768;26.198;2023-03-13T03:19:36;101385.66;;;6.07;100.00
9249;BME280;4660;41.768;26.198;2023-03-13T03:22:02;101385.09;;;6.02;100.00
9249;BME280;4660;41.768;26.198;2023-03-13T03:24:27;101384.78;;;5.93;100.00
9249;BME280;4660;41.768;26.198;2023-03-13T03:26:52;101386.41;;;5.95;100.00
9249;BME280;4660;41.768;26.198;2023-03-13T03:29:18;101391.81;;;5.79;100.00
9249;BME280;4660;41.768;26.198;2023-03-13T03:31:44;101389.66;;;5.56;100.00
9249;BME280;4660;41.768;26.198;2023-03-13T03:34:09;101403.81;;;5.58;100.00
9249;BME280;4660;41.768;26.198;2023-03-13T03:36:35;101406.44;;;5.44;100.00
9249;BME280;4660;41.768;26.198;2023-03-13T03:39:00;101411.94;;;5.41;100.00
9249;BME280;4660;41.768;26.198;2023-03-13T03:41:25;101406.75;;;5.53;100.00
9249;BME280;4660;41.768;26.198;2023-03-13T03:43:51;101411.38;;;5.80;100.00
9249;BME280;4660;41.768;26.198;2023-03-13T03:46:17;101406.50;;;5.87;100.00
9249;BME280;4660;41.768;26.198;2023-03-13T03:48:42;101401.53;;;5.66;100.00
9249;BME280;4660;41.768;26.198;2023-03-13T03:51:08;101416.13;;;5.89;100.00
9249;BME280;4660;41.768;26.198;2023-03-13T03:53:33;101418.19;;;5.70;100.00
9249;BME280;4660;41.768;26.198;2023-03-13T03:56:00;101422.94;;;5.50;100.00
9249;BME280;4660;41.768;26.198;2023-03-13T03:58:26;101425.97;;;5.44;100.00
9249;BME280;4660;41.768;26.198;2023-03-13T04:00:51;101433.75;;;5.33;100.00
9249;BME280;4660;41.768;26.198;2023-03-13T04:03:16;101409.91;;;5.00;100.00
9249;BME280;4660;41.768;26.198;2023-03-13T04:05:42;101430.75;;;5.23;100.00
9249;BME280;4660;41.768;26.198;2023-03-13T04:08:08;101433.59;;;5.20;100.00
9249;BME280;4660;41.768;26.198;2023-03-13T04:10:34;101438.16;;;5.18;100.00
9249;BME280;4660;41.768;26.198;2023-03-13T04:13:00;101433.69;;;5.19;100.00
9249;BME280;4660;41.768;26.198;2023-03-13T04:15:26;101426.94;;;4.97;100.00
9249;BME280;4660;41.768;26.198;2023-03-13T04:17:51;101441.97;;;4.98;100.00
9249;BME280;4660;41.768;26.198;2023-03-13T04:20:17;101445.28;;;4.88;100.00
9249;BME280;4660;41.768;26.198;2023-03-13T04:22:43;101446.63;;;4.63;100.00
9249;BME280;4660;41.768;26.198;2023-03-13T04:25:09;101443.91;;;4.65;100.00
9249;BME280;4660;41.768;26.198;2023-03-13T04:27:35;101450.09;;;4.81;100.00
9249;BME280;4660;41.768;26.198;2023-03-13T04:30:00;101449.22;;;4.65;100.00
9249;BME280;4660;41.768;26.198;2023-03-13T04:32:26;101454.56;;;4.65;100.00
9249;BME280;4660;41.768;26.198;2023-03-13T04:34:52;101450.25;;;4.62;100.00
9249;BME280;4660;41.768;26.198;2023-03-13T04:37:17;101458.50;;;4.89;100.00
9249;BME280;4660;41.768;26.198;2023-03-13T04:39:43;101460.91;;;4.94;100.00
9249;BME280;4660;41.768;26.198;2023-03-13T04:42:10;101461.50;;;4.99;100.00
9249;BME280;4660;41.768;26.198;2023-03-13T04:44:36;101460.66;;;4.83;100.00
9249;BME280;4660;41.768;26.198;2023-03-13T04:47:02;101472.78;;;4.73;100.00
9249;BME280;4660;41.768;26.198;2023-03-13T04:49:28;101485.84;;;4.61;100.00
9249;BME280;4660;41.768;26.198;2023-03-13T04:51:53;101475.84;;;4.49;100.00
9249;BME280;4660;41.768;26.198;2023-03-13T04:54:19;101482.19;;;4.47;100.00
9249;BME280;4660;41.768;26.198;2023-03-13T04:56:45;101479.13;;;4.54;100.00
9249;BME280;4660;41.768;26.198;2023-03-13T04:59:11;101486.16;;;4.55;100.00
9249;BME280;4660;41.768;26.198;2023-03-13T05:01:37;101483.69;;;4.52;100.00
9249;BME280;4660;41.768;26.198;2023-03-13T05:04:03;101489.78;;;4.54;100.00
9249;BME280;4660;41.768;26.198;2023-03-13T05:06:29;101481.72;;;4.72;100.00
9249;BME280;4660;41.768;26.198;2023-03-13T05:08:54;101491.44;;;4.88;100.00
9249;BME280;4660;41.768;26.198;2023-03-13T05:11:20;101509.16;;;5.05;100.00
9249;BME280;4660;41.768;26.198;2023-03-13T05:13:46;101502.34;;;4.84;100.00
9249;BME280;4660;41.768;26.198;2023-03-13T05:16:11;101516.81;;;4.80;100.00
9249;BME280;4660;41.768;26.198;2023-03-13T05:18:37;101533.59;;;4.82;100.00
9249;BME280;4660;41.768;26.198;2023-03-13T05:21:04;101529.88;;;4.84;100.00
9249;BME280;4660;41.768;26.198;2023-03-13T05:23:29;101514.25;;;4.94;100.00
9249;BME280;4660;41.768;26.198;2023-03-13T05:25:55;101526.88;;;4.75;100.00
9249;BME280;4660;41.768;26.198;2023-03-13T05:28:20;101534.66;;;4.62;100.00
9249;BME280;4660;41.768;26.198;2023-03-13T05:30:46;101538.09;;;4.64;100.00
9249;BME280;4660;41.768;26.198;2023-03-13T05:33:11;101539.69;;;4.84;100.00
9249;BME280;4660;41.768;26.198;2023-03-13T05:35:37;101547.28;;;5.07;100.00
9249;BME280;4660;41.768;26.198;2023-03-13T05:38:02;101554.06;;;4.97;100.00
9249;BME280;4660;41.768;26.198;2023-03-13T05:40:28;101556.47;;;4.86;100.00
9249;BME280;4660;41.768;26.198;2023-03-13T05:42:54;101563.22;;;4.76;100.00
9249;BME280;4660;41.768;26.198;2023-03-13T05:45:19;101568.13;;;4.67;100.00
9249;BME280;4660;41.768;26.198;2023-03-13T05:47:45;101564.50;;;4.68;100.00
9249;BME280;4660;41.768;26.198;2023-03-13T05:50:10;101565.69;;;4.96;100.00
9249;BME280;4660;41.768;26.198;2023-03-13T05:52:36;101568.44;;;4.94;100.00
9249;BME280;4660;41.768;26.198;2023-03-13T05:55:01;101571.09;;;5.10;100.00
9249;BME280;4660;41.768;26.198;2023-03-13T05:57:27;101571.88;;;5.12;100.00
9249;BME280;4660;41.768;26.198;2023-03-13T05:59:53;101570.16;;;5.27;100.00
9249;BME280;4660;41.768;26.198;2023-03-13T06:02:19;101578.16;;;5.43;100.00
9249;BME280;4660;41.768;26.198;2023-03-13T06:04:45;101568.44;;;5.42;100.00
9249;BME280;4660;41.768;26.198;2023-03-13T06:07:11;101568.94;;;5.48;100.00
9249;BME280;4660;41.768;26.198;2023-03-13T06:09:36;101584.34;;;5.59;100.00
9249;BME280;4660;41.768;26.198;2023-03-13T06:12:02;101585.06;;;5.93;100.00
9249;BME280;4660;41.768;26.198;2023-03-13T06:14:28;101584.56;;;6.02;100.00
9249;BME280;4660;41.768;26.198;2023-03-13T06:16:54;101579.25;;;6.16;100.00
9249;BME280;4660;41.768;26.198;2023-03-13T06:19:20;101582.44;;;6.37;100.00
9249;BME280;4660;41.768;26.198;2023-03-13T06:21:47;101591.63;;;6.47;100.00
9249;BME280;4660;41.768;26.198;2023-03-13T06:24:12;101583.31;;;6.52;100.00
9249;BME280;4660;41.768;26.198;2023-03-13T06:26:38;101582.28;;;6.83;100.00
9249;BME280;4660;41.768;26.198;2023-03-13T06:29:03;101580.84;;;6.92;100.00
9249;BME280;4660;41.768;26.198;2023-03-13T06:31:29;101582.75;;;7.04;100.00
9249;BME280;4660;41.768;26.198;2023-03-13T06:33:55;101587.13;;;7.05;100.00
9249;BME280;4660;41.768;26.198;2023-03-13T06:36:22;101576.25;;;7.08;100.00
9249;BME280;4660;41.768;26.198;2023-03-13T06:38:47;101576.78;;;7.13;100.00
9249;BME280;4660;41.768;26.198;2023-03-13T06:41:13;101576.31;;;7.21;100.00
9249;BME280;4660;41.768;26.198;2023-03-13T06:43:39;101555.63;;;7.37;100.00
9249;BME280;4660;41.768;26.198;2023-03-13T06:46:06;101571.91;;;7.61;100.00
9249;BME280;4660;41.768;26.198;2023-03-13T06:48:32;101566.25;;;7.65;100.00
9249;BME280;4660;41.768;26.198;2023-03-13T06:50:58;101574.91;;;7.96;100.00
9249;BME280;4660;41.768;26.198;2023-03-13T06:53:24;101570.03;;;8.15;100.00
9249;BME280;4660;41.768;26.198;2023-03-13T06:55:49;101581.06;;;8.23;100.00
9249;BME280;4660;41.768;26.198;2023-03-13T06:58:16;101581.50;;;8.30;100.00
9249;BME280;4660;41.768;26.198;2023-03-13T07:00:42;101583.50;;;8.53;100.00
9249;BME280;4660;41.768;26.198;2023-03-13T07:03:09;101578.44;;;8.62;100.00
9249;BME280;4660;41.768;26.198;2023-03-13T07:05:36;101585.72;;;8.85;100.00
9249;BME280;4660;41.768;26.198;2023-03-13T07:08:01;101589.13;;;9.00;100.00
9249;BME280;4660;41.768;26.198;2023-03-13T07:10:28;101587.84;;;9.05;100.00
9249;BME280;4660;41.768;26.198;2023-03-13T07:12:54;101595.56;;;9.23;98.05
9249;BME280;4660;41.768;26.198;2023-03-13T07:15:20;101591.22;;;9.33;95.36
9249;BME280;4660;41.768;26.198;2023-03-13T07:17:45;101594.81;;;9.57;90.27
9249;BME280;4660;41.768;26.198;2023-03-13T07:20:11;101591.09;;;10.06;88.32
9249;BME280;4660;41.768;26.198;2023-03-13T07:22:36;101579.47;;;9.95;84.31
9249;BME280;4660;41.768;26.198;2023-03-13T07:25:03;101584.28;;;10.02;86.77
9249;BME280;4660;41.768;26.198;2023-03-13T07:27:29;101590.22;;;9.95;86.60
9249;BME280;4660;41.768;26.198;2023-03-13T07:29:55;101587.34;;;10.09;77.45
9249;BME280;4660;41.768;26.198;2023-03-13T07:32:21;101562.75;;;10.02;82.05
9249;BME280;4660;41.768;26.198;2023-03-13T07:34:46;101593.16;;;10.27;70.08
9249;BME280;4660;41.768;26.198;2023-03-13T07:37:13;101582.41;;;10.27;67.21
9249;BME280;4660;41.768;26.198;2023-03-13T07:39:38;101587.19;;;10.34;63.92
9249;BME280;4660;41.768;26.198;2023-03-13T07:42:04;101586.38;;;10.45;57.85
9249;BME280;4660;41.768;26.198;2023-03-13T07:44:30;101580.16;;;10.56;54.90
9249;BME280;4660;41.768;26.198;2023-03-13T07:46:59;101620.66;;;10.65;52.34
9249;BME280;4660;41.768;26.198;2023-03-13T07:49:27;101575.16;;;10.62;51.76
9249;BME280;4660;41.768;26.198;2023-03-13T07:51:57;101578.56;;;10.64;49.15
9249;BME280;4660;41.768;26.198;2023-03-13T07:54:24;101590.19;;;10.54;47.99
9249;BME280;4660;41.768;26.198;2023-03-13T07:56:50;101603.97;;;10.49;49.58
9249;BME280;4660;41.768;26.198;2023-03-13T07:59:17;101579.75;;;10.49;50.81
9249;BME280;4660;41.768;26.198;2023-03-13T08:01:44;101589.63;;;10.72;49.04
9249;BME280;4660;41.768;26.198;2023-03-13T08:04:13;101605.78;;;10.95;47.54
9249;BME280;4660;41.768;26.198;2023-03-13T08:06:41;101596.47;;;10.88;45.25
9249;BME280;4660;41.768;26.198;2023-03-13T08:09:08;101572.25;;;10.88;44.21
9249;BME280;4660;41.768;26.198;2023-03-13T08:11:37;101590.81;;;11.13;44.24
9249;BME280;4660;41.768;26.198;2023-03-13T08:14:06;101584.44;;;11.14;41.47
9249;BME280;4660;41.768;26.198;2023-03-13T08:16:33;101574.28;;;11.18;41.08
9249;BME280;4660;41.768;26.198;2023-03-13T08:19:01;101580.53;;;11.18;39.16
9249;BME280;4660;41.768;26.198;2023-03-13T08:21:31;101585.94;;;11.18;39.70
9249;BME280;4660;41.768;26.198;2023-03-13T08:24:03;101562.53;;;11.19;40.08
9249;BME280;4660;41.768;26.198;2023-03-13T08:26:34;101578.84;;;11.17;37.98
9249;BME280;4660;41.768;26.198;2023-03-13T08:29:04;101584.72;;;11.22;39.53
9249;BME280;4660;41.768;26.198;2023-03-13T08:31:37;101566.81;;;11.21;40.03
9249;BME280;4660;41.768;26.198;2023-03-13T08:34:04;101588.09;;;11.36;39.95
9249;BME280;4660;41.768;26.198;2023-03-13T08:36:36;101577.72;;;11.31;38.50
9249;BME280;4660;41.768;26.198;2023-03-13T08:39:06;101573.91;;;11.45;38.75
9249;BME280;4660;41.768;26.198;2023-03-13T08:41:34;101581.84;;;11.57;37.12
9249;BME280;4660;41.768;26.198;2023-03-13T08:44:03;101566.75;;;11.55;37.06
9249;BME280;4660;41.768;26.198;2023-03-13T08:46:32;101576.53;;;11.67;36.23
9249;BME280;4660;41.768;26.198;2023-03-13T08:48:59;101577.78;;;11.52;36.61
9249;BME280;4660;41.768;26.198;2023-03-13T08:51:27;101558.94;;;11.41;37.16
9249;BME280;4660;41.768;26.198;2023-03-13T08:53:55;101581.22;;;11.54;31.96
9249;BME280;4660;41.768;26.198;2023-03-13T08:56:25;101569.22;;;11.47;30.80
9249;BME280;4660;41.768;26.198;2023-03-13T08:58:53;101558.59;;;11.34;31.02
9249;BME280;4660;41.768;26.198;2023-03-13T09:01:23;101581.94;;;11.56;32.72
9249;BME280;4660;41.768;26.198;2023-03-13T09:03:50;101582.56;;;11.60;33.12
9249;BME280;4660;41.768;26.198;2023-03-13T09:06:21;101581.69;;;11.59;34.23
9249;BME280;4660;41.768;26.198;2023-03-13T09:08:48;101573.13;;;11.43;35.29
9249;BME280;4660;41.768;26.198;2023-03-13T09:11:19;101557.69;;;11.56;35.83
9249;BME280;4660;41.768;26.198;2023-03-13T09:13:48;101573.91;;;11.88;35.13
9249;BME280;4660;41.768;26.198;2023-03-13T09:16:17;101568.78;;;12.06;33.65
9249;BME280;4660;41.768;26.198;2023-03-13T09:18:44;101569.50;;;11.76;35.28
9249;BME280;4660;41.768;26.198;2023-03-13T09:21:20;101574.53;;;11.69;38.11
9249;BME280;4660;41.768;26.198;2023-03-13T09:23:47;101581.66;;;11.70;39.21
9249;BME280;4660;41.768;26.198;2023-03-13T09:26:15;101567.88;;;11.52;40.82
9249;BME280;4660;41.768;26.198;2023-03-13T09:28:42;101559.56;;;11.33;41.20
9249;BME280;4660;41.768;26.198;2023-03-13T09:31:15;101568.00;;;11.40;41.42
9249;BME280;4660;41.768;26.198;2023-03-13T09:33:43;101583.34;;;11.28;43.29
9249;BME280;4660;41.768;26.198;2023-03-13T09:36:11;101572.41;;;11.41;44.01
9249;BME280;4660;41.768;26.198;2023-03-13T09:38:39;101580.22;;;11.66;43.51
9249;BME280;4660;41.768;26.198;2023-03-13T09:41:37;101556.94;;;11.65;38.90
9249;BME280;4660;41.768;26.198;2023-03-13T09:44:24;101562.66;;;11.83;39.38
9249;BME280;4660;41.768;26.198;2023-03-13T09:47:03;101576.03;;;12.05;41.22
9249;BME280;4660;41.768;26.198;2023-03-13T09:49:37;101560.19;;;12.12;41.27
9249;BME280;4660;41.768;26.198;2023-03-13T09:52:23;101559.78;;;11.96;41.12
9249;BME280;4660;41.768;26.198;2023-03-13T09:57:55;101557.97;;;11.85;41.51
9249;BME280;4660;41.768;26.198;2023-03-13T10:00:29;101557.91;;;12.07;40.31
9249;BME280;4660;41.768;26.198;2023-03-13T10:06:03;101552.91;;;12.24;37.11
9249;BME280;4660;41.768;26.198;2023-03-13T10:08:33;101560.50;;;12.19;31.91
9249;BME280;4660;41.768;26.198;2023-03-13T10:14:30;101549.06;;;12.47;30.01
9249;BME280;4660;41.768;26.198;2023-03-13T10:17:34;101539.13;;;12.48;32.77
9249;BME280;4660;41.768;26.198;2023-03-13T10:20:34;101566.38;;;12.65;37.58
9249;BME280;4660;41.768;26.198;2023-03-13T10:23:04;101548.63;;;12.73;32.75
9249;BME280;4660;41.768;26.198;2023-03-13T10:25:34;101534.00;;;12.75;28.60
9249;BME280;4660;41.768;26.198;2023-03-13T10:28:11;101529.66;;;12.63;28.13
9249;BME280;4660;41.768;26.198;2023-03-13T10:31:17;101537.78;;;12.63;26.97
9249;BME280;4660;41.768;26.198;2023-03-13T10:33:46;101503.97;;;12.68;26.37
9249;BME280;4660;41.768;26.198;2023-03-13T10:36:13;101516.88;;;12.95;26.91
9249;BME280;4660;41.768;26.198;2023-03-13T10:38:52;101519.13;;;12.90;26.97
9249;BME280;4660;41.768;26.198;2023-03-13T10:41:32;101520.84;;;12.91;27.52
9249;BME280;4660;41.768;26.198;2023-03-13T10:44:05;101512.03;;;12.89;28.34
9249;BME280;4660;41.768;26.198;2023-03-13T10:46:39;101506.63;;;12.89;28.75
9249;BME280;4660;41.768;26.198;2023-03-13T10:49:16;101503.63;;;12.92;28.91
9249;BME280;4660;41.768;26.198;2023-03-13T10:51:50;101502.19;;;12.79;28.01
9249;BME280;4660;41.768;26.198;2023-03-13T10:54:31;101501.22;;;12.89;28.00
9249;BME280;4660;41.768;26.198;2023-03-13T10:59:49;101477.13;;;13.17;27.70
9249;BME280;4660;41.768;26.198;2023-03-13T11:02:36;101483.44;;;13.56;26.93
9249;BME280;4660;41.768;26.198;2023-03-13T11:07:52;101471.78;;;13.56;26.95
9249;BME280;4660;41.768;26.198;2023-03-13T11:10:30;101444.75;;;13.36;27.52
9249;BME280;4660;41.768;26.198;2023-03-13T11:12:58;101469.78;;;13.48;27.18
9249;BME280;4660;41.768;26.198;2023-03-13T11:15:52;101468.66;;;13.31;26.86
9249;BME280;4660;41.768;26.198;2023-03-13T11:18:47;101470.88;;;13.16;26.54
9249;BME280;4660;41.768;26.198;2023-03-13T11:27:09;101442.34;;;13.72;27.31
9249;BME280;4660;41.768;26.198;2023-03-13T11:32:42;101445.03;;;13.62;27.30
9249;BME280;4660;41.768;26.198;2023-03-13T11:37:55;101432.53;;;13.52;28.06
9249;BME280;4660;41.768;26.198;2023-03-13T11:40:38;101437.75;;;13.63;28.08
9249;BME280;4660;41.768;26.198;2023-03-13T12:06:23;101405.41;;;13.90;29.54
9249;BME280;4660;41.768;26.198;2023-03-13T12:14:17;101398.31;;;13.89;28.96
9249;BME280;4660;41.768;26.198;2023-03-13T12:16:52;101381.84;;;13.73;29.07
9249;BME280;4660;41.768;26.198;2023-03-13T12:19:29;101401.63;;;13.64;29.34
9249;BME280;4660;41.768;26.198;2023-03-13T12:22:02;101379.72;;;13.67;28.90
9249;BME280;4660;41.768;26.198;2023-03-13T12:24:44;101389.13;;;14.10;28.65
9249;BME280;4660;41.768;26.198;2023-03-13T12:27:20;101376.72;;;14.17;28.17
9249;BME280;4660;41.768;26.198;2023-03-13T12:35:48;101365.59;;;13.63;28.48
9249;BME280;4660;41.768;26.198;2023-03-13T12:38:29;101386.50;;;13.71;28.52
9249;BME280;4660;41.768;26.198;2023-03-13T12:43:34;101363.34;;;14.05;29.35
9249;BME280;4660;41.768;26.198;2023-03-13T12:46:14;101354.66;;;14.12;29.45
9249;BME280;4660;41.768;26.198;2023-03-13T12:54:49;101371.72;;;13.75;28.26
9249;BME280;4660;41.768;26.198;2023-03-13T12:57:46;101371.47;;;14.05;29.09
9249;BME280;4660;41.768;26.198;2023-03-13T13:00:21;101359.63;;;13.79;29.50
9249;BME280;4660;41.768;26.198;2023-03-13T13:16:51;101358.16;;;13.85;30.61
9249;BME280;4660;41.768;26.198;2023-03-13T13:32:53;101350.00;;;13.47;29.88
9249;BME280;4660;41.768;26.198;2023-03-13T13:35:27;101359.81;;;13.58;30.47
9249;BME280;4660;41.768;26.198;2023-03-13T13:43:36;101369.81;;;13.85;30.44
9249;BME280;4660;41.768;26.198;2023-03-13T13:48:38;101379.44;;;14.07;29.72
9249;BME280;4660;41.768;26.198;2023-03-13T13:53:47;101362.63;;;13.66;30.35
9249;BME280;4660;41.768;26.198;2023-03-13T14:01:45;101381.06;;;13.90;30.07
9249;BME280;4660;41.768;26.198;2023-03-13T14:07:15;101365.72;;;13.81;29.08
9249;BME280;4660;41.768;26.198;2023-03-13T14:09:58;101378.94;;;13.84;29.23
9249;BME280;4660;41.768;26.198;2023-03-13T14:12:36;101376.28;;;13.74;29.55
9249;BME280;4660;41.768;26.198;2023-03-13T14:20:27;101382.28;;;13.59;29.59
9249;BME280;4660;41.768;26.198;2023-03-13T14:23:02;101389.59;;;13.86;29.35
9249;BME280;4660;41.768;26.198;2023-03-13T14:25:49;101388.94;;;13.64;29.49
9249;BME280;4660;41.768;26.198;2023-03-13T14:28:20;101356.56;;;13.26;29.33
9249;BME280;4660;41.768;26.198;2023-03-13T14:30:48;101381.44;;;13.48;29.00
9249;BME280;4660;41.768;26.198;2023-03-13T14:33:14;101375.28;;;13.56;28.98
9249;BME280;4660;41.768;26.198;2023-03-13T14:35:41;101379.16;;;13.54;28.90
9249;BME280;4660;41.768;26.198;2023-03-13T14:38:16;101376.44;;;13.54;28.78
9249;BME280;4660;41.768;26.198;2023-03-13T14:45:59;101358.88;;;13.77;28.05
9249;BME280;4660;41.768;26.198;2023-03-13T14:48:31;101355.59;;;13.83;28.15
9249;BME280;4660;41.768;26.198;2023-03-13T15:01:27;101253.75;;;12.88;27.73
9249;BME280;4660;41.768;26.198;2023-03-13T15:06:31;101353.09;;;13.62;28.14
9249;BME280;4660;41.768;26.198;2023-03-13T15:11:33;101286.88;;;12.90;28.45
9249;BME280;4660;41.768;26.198;2023-03-13T15:14:00;101359.84;;;13.29;28.53
9249;BME280;4660;41.768;26.198;2023-03-13T15:16:27;101345.34;;;13.30;28.46
9249;BME280;4660;41.768;26.198;2023-03-13T15:18:54;101388.75;;;13.95;28.28
9249;BME280;4660;41.768;26.198;2023-03-13T15:21:33;101319.09;;;13.60;28.21
9249;BME280;4660;41.768;26.198;2023-03-13T15:24:01;101384.97;;;14.43;28.09
9249;BME280;4660;41.768;26.198;2023-03-13T15:26:28;101390.28;;;14.44;28.11
9249;BME280;4660;41.768;26.198;2023-03-13T15:28:53;101395.97;;;14.41;27.86
9249;BME280;4660;41.768;26.198;2023-03-13T15:31:24;101374.19;;;14.05;28.23
9249;BME280;4660;41.768;26.198;2023-03-13T15:33:57;101282.84;;;13.53;28.47
9249;BME280;4660;41.768;26.198;2023-03-13T15:36:24;101402.72;;;14.37;27.97
9249;BME280;4660;41.768;26.198;2023-03-13T15:38:50;101392.56;;;14.49;28.17
9249;BME280;4660;41.768;26.198;2023-03-13T15:41:42;101271.16;;;13.89;27.99
9249;BME280;4660;41.768;26.198;2023-03-13T15:46:59;101414.72;;;14.25;28.49
9249;BME280;4660;41.768;26.198;2023-03-13T15:52:00;101343.25;;;13.81;29.08